createdAt,value
2023-03-06T00:00:20.330Z,4.54
2023-03-06T00:01:20.607Z,4.51
2023-03-06T00:02:20.330Z,4.51
2023-03-06T00:03:20.672Z,4.51
2023-03-06T00:04:20.371Z,4.50
2023-03-06T00:05:20.655Z,4.51
2023-03-06T00:06:41.883Z,4.50
2023-03-06T00:07:20.177Z,4.51
2023-03-06T00:08:20.411Z,4.51
2023-03-06T00:09:20.173Z,4.50
2023-03-06T00:10:20.417Z,4.51
2023-03-06T00:11:20.172Z,4.51
2023-03-06T00:12:20.419Z,4.48
2023-03-06T00:13:20.192Z,4.48
2023-03-06T00:14:20.412Z,4.50
2023-03-06T00:15:20.178Z,4.47
2023-03-06T00:16:40.877Z,4.47
2023-03-06T00:17:20.224Z,4.47
2023-03-06T00:18:19.974Z,4.47
2023-03-06T00:19:20.223Z,4.45
2023-03-06T00:20:19.996Z,4.45
2023-03-06T00:21:20.248Z,4.47
2023-03-06T00:22:19.994Z,4.47
2023-03-06T00:23:20.257Z,4.44
2023-03-06T00:24:19.990Z,4.45
2023-03-06T00:25:20.266Z,4.42
2023-03-06T00:26:41.541Z,4.40
2023-03-06T00:27:20.376Z,4.36
2023-03-06T00:28:20.138Z,4.34
2023-03-06T00:29:19.926Z,4.33
2023-03-06T00:30:20.150Z,4.32
2023-03-06T00:31:19.968Z,4.30
2023-03-06T00:32:20.203Z,4.27
2023-03-06T00:33:19.960Z,4.27
2023-03-06T00:34:20.180Z,4.26
2023-03-06T00:35:20.006Z,4.26
2023-03-06T00:36:41.685Z,4.23
2023-03-06T00:37:19.985Z,4.23
2023-03-06T00:38:20.225Z,4.23
2023-03-06T00:39:19.991Z,4.18
2023-03-06T00:40:20.228Z,4.18
2023-03-06T00:41:19.998Z,4.16
2023-03-06T00:42:19.988Z,4.16
2023-03-06T00:43:19.994Z,4.15
2023-03-06T00:44:19.753Z,4.12
2023-03-06T00:45:20.028Z,4.12
2023-03-06T00:46:40.846Z,4.11
2023-03-06T00:47:20.176Z,4.11
2023-03-06T00:48:19.928Z,4.09
2023-03-06T00:49:19.688Z,4.08
2023-03-06T00:50:19.947Z,4.06
2023-03-06T00:51:19.720Z,4.05
2023-03-06T00:52:19.981Z,4.05
2023-03-06T00:53:19.734Z,4.00
2023-03-06T00:54:20.010Z,4.00
2023-03-06T00:55:19.766Z,3.98
2023-03-06T00:56:41.545Z,3.96
2023-03-06T00:57:19.865Z,3.96
2023-03-06T00:58:20.063Z,3.96
2023-03-06T00:59:19.836Z,3.94
2023-03-06T01:00:19.580Z,3.94
2023-03-06T01:01:19.913Z,3.94
2023-03-06T01:02:19.648Z,3.93
2023-03-06T01:03:19.941Z,3.94
2023-03-06T01:04:19.688Z,3.96
2023-03-06T01:05:19.954Z,3.94
2023-03-06T01:06:40.408Z,3.93
2023-03-06T01:07:19.474Z,3.93
2023-03-06T01:08:19.754Z,3.93
2023-03-06T01:09:19.514Z,3.93
2023-03-06T01:10:19.778Z,3.91
2023-03-06T01:11:19.560Z,3.91
2023-03-06T01:12:21.419Z,3.93
2023-03-06T01:13:19.541Z,3.91
2023-03-06T01:14:19.797Z,3.91
2023-03-06T01:15:19.547Z,3.91
2023-03-06T01:16:40.423Z,3.90
2023-03-06T01:17:19.584Z,3.90
2023-03-06T01:18:19.841Z,3.90
2023-03-06T01:19:19.596Z,3.90
2023-03-06T01:20:19.347Z,3.91
2023-03-06T01:21:19.611Z,3.91
2023-03-06T01:22:19.367Z,3.91
2023-03-06T01:23:19.606Z,3.93
2023-03-06T01:24:19.404Z,3.93
2023-03-06T01:25:19.642Z,3.94
2023-03-06T01:26:40.512Z,3.94
2023-03-06T01:27:19.735Z,3.97
2023-03-06T01:28:19.508Z,3.94
2023-03-06T01:29:19.262Z,3.97
2023-03-06T01:30:19.556Z,3.98
2023-03-06T01:31:19.300Z,4.00
2023-03-06T01:32:19.644Z,4.02
2023-03-06T01:33:19.265Z,4.04
2023-03-06T01:34:19.526Z,4.04
2023-03-06T01:35:19.269Z,4.05
2023-03-06T01:36:41.052Z,4.08
2023-03-06T01:37:19.342Z,4.06
2023-03-06T01:38:19.600Z,4.11
2023-03-06T01:39:19.332Z,4.11
2023-03-06T01:40:19.584Z,4.08
2023-03-06T01:41:19.332Z,4.11
2023-03-06T01:42:19.710Z,4.09
2023-03-06T01:43:19.463Z,4.12
2023-03-06T01:44:19.235Z,4.15
2023-03-06T01:45:19.472Z,4.15
2023-03-06T01:46:40.734Z,4.16
2023-03-06T01:47:19.535Z,4.16
2023-03-06T01:48:19.304Z,4.16
2023-03-06T01:49:19.039Z,4.15
2023-03-06T01:50:19.310Z,4.18
2023-03-06T01:51:19.073Z,4.16
2023-03-06T01:52:19.348Z,4.15
2023-03-06T01:53:19.108Z,4.18
2023-03-06T01:54:19.379Z,4.20
2023-03-06T01:55:19.134Z,4.22
2023-03-06T01:56:40.880Z,4.20
2023-03-06T01:57:19.184Z,4.22
2023-03-06T01:58:19.427Z,4.20
2023-03-06T01:59:19.170Z,4.20
2023-03-06T02:00:19.446Z,4.22
2023-03-06T02:01:19.257Z,4.23
2023-03-06T02:02:19.041Z,4.23
2023-03-06T02:03:19.201Z,4.23
2023-03-06T02:04:18.968Z,4.23
2023-03-06T02:05:19.208Z,4.24
2023-03-06T02:06:39.934Z,4.23
2023-03-06T02:07:19.250Z,4.26
2023-03-06T02:08:19.042Z,4.26
2023-03-06T02:09:19.298Z,4.26
2023-03-06T02:10:19.039Z,4.26
2023-03-06T02:11:19.302Z,4.26
2023-03-06T02:12:19.193Z,4.27
2023-03-06T02:13:18.902Z,4.26
2023-03-06T02:14:19.261Z,4.27
2023-03-06T02:15:18.942Z,4.27
2023-03-06T02:16:40.701Z,4.29
2023-03-06T02:17:18.981Z,4.30
2023-03-06T02:18:19.265Z,4.30
2023-03-06T02:19:19.021Z,4.30
2023-03-06T02:20:18.781Z,4.30
2023-03-06T02:21:19.079Z,4.32
2023-03-06T02:22:18.827Z,4.29
2023-03-06T02:23:19.067Z,4.30
2023-03-06T02:24:18.816Z,4.32
2023-03-06T02:25:19.092Z,4.30
2023-03-06T02:26:40.363Z,4.32
2023-03-06T02:27:19.135Z,4.32
2023-03-06T02:28:18.875Z,4.33
2023-03-06T02:29:19.113Z,4.32
2023-03-06T02:30:18.874Z,4.32
2023-03-06T02:31:18.689Z,4.33
2023-03-06T02:32:18.970Z,4.32
2023-03-06T02:33:18.663Z,4.30
2023-03-06T02:34:18.913Z,4.30
2023-03-06T02:35:18.663Z,4.29
2023-03-06T02:36:39.437Z,4.27
2023-03-06T02:37:18.704Z,4.27
2023-03-06T02:38:18.978Z,4.26
2023-03-06T02:39:18.729Z,4.26
2023-03-06T02:40:19.019Z,4.26
2023-03-06T02:41:18.803Z,4.24
2023-03-06T02:42:19.054Z,4.20
2023-03-06T02:43:18.813Z,4.18
2023-03-06T02:44:18.584Z,4.16
2023-03-06T02:45:18.828Z,4.15
2023-03-06T02:46:40.141Z,4.12
2023-03-06T02:47:18.926Z,4.14
2023-03-06T02:48:18.693Z,4.12
2023-03-06T02:49:18.465Z,4.09
2023-03-06T02:50:18.721Z,4.08
2023-03-06T02:51:18.456Z,4.11
2023-03-06T02:52:18.742Z,4.11
2023-03-06T02:53:18.475Z,4.11
2023-03-06T02:54:18.771Z,4.08
2023-03-06T02:55:18.536Z,4.08
2023-03-06T02:56:39.794Z,4.08
2023-03-06T02:57:18.614Z,4.08
2023-03-06T02:58:18.370Z,4.05
2023-03-06T02:59:18.614Z,4.05
2023-03-06T03:00:18.404Z,4.05
2023-03-06T03:01:18.710Z,4.02
2023-03-06T03:02:18.394Z,4.02
2023-03-06T03:03:18.673Z,4.02
2023-03-06T03:04:18.453Z,3.98
2023-03-06T03:05:18.683Z,3.96
2023-03-06T03:06:39.169Z,3.96
2023-03-06T03:07:18.275Z,3.94
2023-03-06T03:08:18.550Z,3.91
2023-03-06T03:09:18.322Z,3.88
2023-03-06T03:10:18.565Z,3.90
2023-03-06T03:11:18.301Z,3.90
2023-03-06T03:12:18.591Z,3.88
2023-03-06T03:13:18.335Z,3.88
2023-03-06T03:14:18.564Z,3.87
2023-03-06T03:15:18.326Z,3.88
2023-03-06T03:16:39.309Z,3.88
2023-03-06T03:17:18.403Z,3.88
2023-03-06T03:18:18.637Z,3.87
2023-03-06T03:19:18.400Z,3.87
2023-03-06T03:20:18.182Z,3.87
2023-03-06T03:21:18.416Z,3.87
2023-03-06T03:22:18.170Z,3.88
2023-03-06T03:23:18.440Z,3.86
2023-03-06T03:24:18.259Z,3.87
2023-03-06T03:25:18.522Z,3.87
2023-03-06T03:26:39.787Z,3.88
2023-03-06T03:27:18.176Z,3.88
2023-03-06T03:28:18.406Z,3.87
2023-03-06T03:29:18.213Z,3.90
2023-03-06T03:30:18.471Z,3.87
2023-03-06T03:31:18.302Z,3.88
2023-03-06T03:32:18.082Z,3.88
2023-03-06T03:33:18.373Z,3.87
2023-03-06T03:34:18.162Z,3.83
2023-03-06T03:35:18.427Z,3.83
2023-03-06T03:36:39.837Z,3.80
2023-03-06T03:37:19.549Z,3.80
2023-03-06T03:38:18.397Z,3.80
2023-03-06T03:39:18.208Z,3.79
2023-03-06T03:40:17.969Z,3.76
2023-03-06T03:41:18.262Z,3.73
2023-03-06T03:42:18.034Z,3.73
2023-03-06T03:43:18.303Z,3.72
2023-03-06T03:44:18.101Z,3.70
2023-03-06T03:45:18.447Z,3.69
2023-03-06T03:46:39.732Z,3.66
2023-03-06T03:47:18.024Z,3.65
2023-03-06T03:48:18.306Z,3.65
2023-03-06T03:49:18.067Z,3.62
2023-03-06T03:50:18.365Z,3.62
2023-03-06T03:51:18.125Z,3.60
2023-03-06T03:52:17.903Z,3.55
2023-03-06T03:53:18.293Z,3.55
2023-03-06T03:54:18.020Z,3.52
2023-03-06T03:55:18.248Z,3.52
2023-03-06T03:56:39.504Z,3.51
2023-03-06T03:57:17.872Z,3.50
2023-03-06T03:58:18.141Z,3.50
2023-03-06T03:59:17.889Z,3.47
2023-03-06T04:00:18.194Z,3.43
2023-03-06T04:01:17.985Z,3.40
2023-03-06T04:02:18.325Z,3.39
2023-03-06T04:03:18.066Z,3.36
2023-03-06T04:04:17.829Z,3.39
2023-03-06T04:05:18.100Z,3.33
2023-03-06T04:06:39.375Z,3.32
2023-03-06T04:07:17.655Z,3.32
2023-03-06T04:08:17.934Z,3.29
2023-03-06T04:09:17.688Z,3.26
2023-03-06T04:10:17.966Z,3.28
2023-03-06T04:11:17.704Z,3.26
2023-03-06T04:12:17.974Z,3.24
2023-03-06T04:13:17.718Z,3.23
2023-03-06T04:14:17.986Z,3.23
2023-03-06T04:15:17.697Z,3.21
2023-03-06T04:16:39.466Z,3.20
2023-03-06T04:17:17.750Z,3.18
2023-03-06T04:18:18.027Z,3.20
2023-03-06T04:19:17.796Z,3.18
2023-03-06T04:20:18.058Z,3.17
2023-03-06T04:21:17.814Z,3.15
2023-03-06T04:22:17.585Z,3.14
2023-03-06T04:23:17.871Z,3.14
2023-03-06T04:24:17.609Z,3.10
2023-03-06T04:25:17.837Z,3.10
2023-03-06T04:26:38.498Z,3.08
2023-03-06T04:27:17.970Z,3.10
2023-03-06T04:28:17.722Z,3.06
2023-03-06T04:29:17.470Z,3.08
2023-03-06T04:30:17.740Z,3.06
2023-03-06T04:31:17.511Z,3.06
2023-03-06T04:32:19.725Z,3.05
2023-03-06T04:33:17.483Z,3.05
2023-03-06T04:34:17.740Z,3.02
2023-03-06T04:35:17.501Z,3.02
2023-03-06T04:36:38.451Z,2.97
2023-03-06T04:37:17.562Z,2.97
2023-03-06T04:38:17.852Z,2.95
2023-03-06T04:39:17.585Z,2.95
2023-03-06T04:40:17.328Z,2.93
2023-03-06T04:41:17.580Z,2.92
2023-03-06T04:42:17.371Z,2.90
2023-03-06T04:43:17.612Z,2.92
2023-03-06T04:44:17.358Z,2.92
2023-03-06T04:45:17.598Z,2.90
2023-03-06T04:46:38.441Z,2.90
2023-03-06T04:47:19.197Z,2.89
2023-03-06T04:48:17.467Z,2.90
2023-03-06T04:49:17.705Z,2.89
2023-03-06T04:50:17.445Z,2.89
2023-03-06T04:51:17.702Z,2.87
2023-03-06T04:52:17.436Z,2.87
2023-03-06T04:53:17.198Z,2.87
2023-03-06T04:54:18.989Z,2.85
2023-03-06T04:55:17.212Z,2.85
2023-03-06T04:56:38.022Z,2.84
2023-03-06T04:57:17.318Z,2.85
2023-03-06T04:58:17.590Z,2.85
2023-03-06T04:59:17.348Z,2.85
2023-03-06T05:00:17.601Z,2.84
2023-03-06T05:01:17.406Z,2.82
2023-03-06T05:02:17.674Z,2.82
2023-03-06T05:03:17.349Z,2.84
2023-03-06T05:04:17.122Z,2.82
2023-03-06T05:05:17.356Z,2.81
2023-03-06T05:06:38.607Z,2.78
2023-03-06T05:07:17.405Z,2.79
2023-03-06T05:08:17.219Z,2.78
2023-03-06T05:09:17.415Z,2.77
2023-03-06T05:10:17.167Z,2.74
2023-03-06T05:11:17.405Z,2.74
2023-03-06T05:12:17.169Z,2.72
2023-03-06T05:13:17.436Z,2.71
2023-03-06T05:14:17.208Z,2.72
2023-03-06T05:15:17.435Z,2.74
2023-03-06T05:16:38.729Z,2.72
2023-03-06T05:17:17.006Z,2.72
2023-03-06T05:18:17.258Z,2.71
2023-03-06T05:19:17.030Z,2.71
2023-03-06T05:20:17.278Z,2.69
2023-03-06T05:21:17.048Z,2.69
2023-03-06T05:22:17.266Z,2.72
2023-03-06T05:23:17.041Z,2.66
2023-03-06T05:24:17.301Z,2.69
2023-03-06T05:25:17.078Z,2.67
2023-03-06T05:26:38.020Z,2.67
2023-03-06T05:27:17.124Z,2.69
2023-03-06T05:28:16.866Z,2.66
2023-03-06T05:29:17.133Z,2.66
2023-03-06T05:30:16.873Z,2.66
2023-03-06T05:31:17.201Z,2.69
2023-03-06T05:32:16.912Z,2.66
2023-03-06T05:33:17.118Z,2.64
2023-03-06T05:34:16.879Z,2.67
2023-03-06T05:35:17.121Z,2.67
2023-03-06T05:36:38.386Z,2.67
2023-03-06T05:37:17.173Z,2.67
2023-03-06T05:38:16.925Z,2.64
2023-03-06T05:39:17.195Z,2.64
2023-03-06T05:40:16.930Z,2.63
2023-03-06T05:41:16.709Z,2.63
2023-03-06T05:42:17.031Z,2.63
2023-03-06T05:43:16.801Z,2.64
2023-03-06T05:44:17.076Z,2.64
2023-03-06T05:45:16.836Z,2.64
2023-03-06T05:46:38.609Z,2.66
2023-03-06T05:47:16.898Z,2.64
2023-03-06T05:48:16.642Z,2.66
2023-03-06T05:49:18.491Z,2.67
2023-03-06T05:50:16.805Z,2.67
2023-03-06T05:51:17.061Z,2.67
2023-03-06T05:52:16.815Z,2.69
2023-03-06T05:53:17.082Z,2.72
2023-03-06T05:54:16.840Z,2.75
2023-03-06T05:55:16.608Z,2.74
2023-03-06T05:56:36.882Z,2.75
2023-03-06T05:57:16.609Z,2.77
2023-03-06T05:58:16.874Z,2.78
2023-03-06T05:59:16.653Z,2.77
2023-03-06T06:00:16.900Z,2.78
2023-03-06T06:01:16.671Z,2.79
2023-03-06T06:02:16.969Z,2.81
2023-03-06T06:03:16.725Z,2.82
2023-03-06T06:04:16.962Z,2.82
2023-03-06T06:05:16.703Z,2.84
2023-03-06T06:06:37.013Z,2.82
2023-03-06T06:07:16.737Z,2.82
2023-03-06T06:08:16.535Z,2.79
2023-03-06T06:09:16.823Z,2.85
2023-03-06T06:10:16.629Z,2.85
2023-03-06T06:11:16.837Z,2.89
2023-03-06T06:12:16.588Z,2.87
2023-03-06T06:13:16.869Z,2.89
2023-03-06T06:14:16.601Z,2.89
2023-03-06T06:15:16.386Z,2.89
2023-03-06T06:16:36.625Z,2.89
2023-03-06T06:17:16.375Z,2.90
2023-03-06T06:18:16.614Z,2.90
2023-03-06T06:19:16.381Z,2.89
2023-03-06T06:20:16.609Z,2.89
2023-03-06T06:21:16.383Z,2.92
2023-03-06T06:22:16.658Z,2.90
2023-03-06T06:23:16.404Z,2.90
2023-03-06T06:24:17.190Z,2.93
2023-03-06T06:25:16.412Z,2.92
2023-03-06T06:26:38.258Z,2.95
2023-03-06T06:27:16.567Z,2.95
2023-03-06T06:28:17.746Z,2.96
2023-03-06T06:29:16.578Z,2.97
2023-03-06T06:30:16.314Z,2.99
2023-03-06T06:31:15.743Z,2.99
2023-03-06T06:32:16.491Z,2.99
2023-03-06T06:33:16.199Z,2.99
2023-03-06T06:34:16.467Z,3.02
2023-03-06T06:35:16.218Z,3.02
2023-03-06T06:36:36.713Z,3.02
2023-03-06T06:37:16.375Z,3.03
2023-03-06T06:38:16.162Z,3.06
2023-03-06T06:39:16.406Z,3.06
2023-03-06T06:40:16.190Z,3.08
2023-03-06T06:41:42.243Z,3.06
2023-03-06T06:42:39.107Z,3.06
2023-03-06T06:43:17.475Z,3.08
2023-03-06T06:44:16.282Z,3.11
2023-03-06T06:45:16.475Z,3.13
2023-03-06T06:47:20.818Z,3.14
2023-03-06T06:47:25.440Z,3.17
2023-03-06T06:48:18.063Z,3.17
2023-03-06T06:49:16.036Z,3.18
2023-03-06T06:50:16.321Z,3.21
2023-03-06T06:51:16.076Z,3.20
2023-03-06T06:52:16.421Z,3.20
2023-03-06T06:53:16.105Z,3.21
2023-03-06T06:54:16.398Z,3.21
2023-03-06T06:55:16.122Z,3.21
2023-03-06T06:56:36.405Z,3.26
2023-03-06T06:57:15.453Z,3.26
2023-03-06T06:58:15.458Z,3.24
2023-03-06T06:59:17.358Z,3.28
2023-03-06T07:00:15.448Z,3.29
2023-03-06T07:01:15.407Z,3.31
2023-03-06T07:02:15.371Z,3.33
2023-03-06T07:03:15.379Z,3.33
2023-03-06T07:04:15.534Z,3.35
2023-03-06T07:05:15.334Z,3.40
2023-03-06T07:06:35.374Z,3.42
2023-03-06T07:07:15.308Z,3.45
2023-03-06T07:08:15.319Z,3.45
2023-03-06T07:09:15.315Z,3.45
2023-03-06T07:10:15.329Z,3.45
2023-03-06T07:11:15.281Z,3.45
2023-03-06T07:12:15.272Z,3.50
2023-03-06T07:13:15.324Z,3.48
2023-03-06T07:14:15.261Z,3.50
2023-03-06T07:15:15.267Z,3.50
2023-03-06T07:16:35.319Z,3.50
2023-03-06T07:17:15.239Z,3.51
2023-03-06T07:18:15.202Z,3.52
2023-03-06T07:19:15.206Z,3.52
2023-03-06T07:20:15.205Z,3.52
2023-03-06T07:21:15.172Z,3.55
2023-03-06T07:22:15.220Z,3.55
2023-03-06T07:23:15.217Z,3.55
2023-03-06T07:24:15.165Z,3.57
2023-03-06T07:25:15.151Z,3.55
2023-03-06T07:26:35.169Z,3.57
2023-03-06T07:27:16.029Z,3.57
2023-03-06T07:28:17.806Z,3.57
2023-03-06T07:29:15.905Z,3.60
2023-03-06T07:30:15.654Z,3.58
2023-03-06T07:31:16.059Z,3.58
2023-03-06T07:32:15.693Z,3.60
2023-03-06T07:33:16.928Z,3.60
2023-03-06T07:34:15.670Z,3.61
2023-03-06T07:35:20.217Z,3.61
2023-03-06T07:36:35.733Z,3.61
2023-03-06T07:37:16.087Z,3.61
2023-03-06T07:38:15.739Z,3.62
2023-03-06T07:39:16.018Z,3.62
2023-03-06T07:40:15.772Z,3.66
2023-03-06T07:41:15.553Z,3.65
2023-03-06T07:42:15.790Z,3.68
2023-03-06T07:43:19.410Z,3.68
2023-03-06T07:44:15.831Z,3.69
2023-03-06T07:45:15.604Z,3.68
2023-03-06T07:46:35.873Z,3.70
2023-03-06T07:47:15.598Z,3.70
2023-03-06T07:48:15.933Z,3.70
2023-03-06T07:49:15.660Z,3.73
2023-03-06T07:50:15.418Z,3.73
2023-03-06T07:51:15.668Z,3.72
2023-03-06T07:52:15.404Z,3.73
2023-03-06T07:53:15.678Z,3.73
2023-03-06T07:54:15.420Z,3.76
2023-03-06T07:55:15.708Z,3.76
2023-03-06T07:56:36.677Z,3.79
2023-03-06T07:57:15.709Z,3.79
2023-03-06T07:58:15.464Z,3.80
2023-03-06T07:59:15.723Z,3.80
2023-03-06T08:00:15.477Z,3.80
2023-03-06T08:01:15.762Z,3.83
2023-03-06T08:02:15.515Z,3.83
2023-03-06T08:03:15.352Z,3.83
2023-03-06T08:04:15.704Z,3.84
2023-03-06T08:05:15.309Z,3.84
2023-03-06T08:06:35.587Z,3.84
2023-03-06T08:07:15.317Z,3.87
2023-03-06T08:08:15.564Z,3.86
2023-03-06T08:09:15.340Z,3.87
2023-03-06T08:10:15.623Z,3.87
2023-03-06T08:11:15.354Z,3.87
2023-03-06T08:12:16.681Z,3.91
2023-03-06T08:13:15.366Z,3.91
2023-03-06T08:14:15.617Z,3.91
2023-03-06T08:15:15.365Z,3.93
2023-03-06T08:16:35.701Z,3.97
2023-03-06T08:17:15.402Z,3.97
2023-03-06T08:18:15.170Z,4.02
2023-03-06T08:19:15.436Z,4.05
2023-03-06T08:20:15.187Z,4.06
2023-03-06T08:21:15.455Z,4.09
2023-03-06T08:22:15.202Z,4.11
2023-03-06T08:23:15.454Z,4.15
2023-03-06T08:24:15.203Z,4.15
2023-03-06T08:25:15.482Z,4.18
2023-03-06T08:26:35.225Z,4.18
2023-03-06T08:27:15.492Z,4.20
2023-03-06T08:28:15.226Z,4.18
2023-03-06T08:29:15.508Z,4.18
2023-03-06T08:30:15.452Z,4.16
2023-03-06T08:31:15.015Z,4.15
2023-03-06T08:32:15.279Z,4.16
2023-03-06T08:33:15.014Z,4.16
2023-03-06T08:34:15.299Z,4.16
2023-03-06T08:35:15.024Z,4.15
2023-03-06T08:36:35.284Z,4.15
2023-03-06T08:37:15.027Z,4.18
2023-03-06T08:38:15.262Z,4.20
2023-03-06T08:39:15.032Z,4.20
2023-03-06T08:40:15.307Z,4.24
2023-03-06T08:41:15.070Z,4.26
2023-03-06T08:42:15.317Z,4.27
2023-03-06T08:43:15.372Z,4.30
2023-03-06T08:44:15.003Z,4.30
2023-03-06T08:45:15.244Z,4.34
2023-03-06T08:46:36.542Z,4.37
2023-03-06T08:47:15.261Z,4.37
2023-03-06T08:48:15.010Z,4.41
2023-03-06T08:49:15.292Z,4.42
2023-03-06T08:50:15.029Z,4.42
2023-03-06T08:51:15.810Z,4.45
2023-03-06T08:52:15.074Z,4.47
2023-03-06T08:53:14.839Z,4.48
2023-03-06T08:54:15.185Z,4.51
2023-03-06T08:55:15.235Z,4.54
2023-03-06T08:56:35.152Z,4.58
2023-03-06T08:57:14.886Z,4.59
2023-03-06T08:58:15.107Z,4.55
2023-03-06T08:59:14.851Z,4.55
2023-03-06T09:00:15.140Z,4.58
2023-03-06T09:01:14.961Z,4.55
2023-03-06T09:02:15.352Z,4.55
2023-03-06T09:03:14.927Z,4.55
2023-03-06T09:04:14.687Z,4.55
2023-03-06T09:05:14.977Z,4.58
2023-03-06T09:06:34.730Z,4.58
2023-03-06T09:07:14.975Z,4.59
2023-03-06T09:08:14.696Z,4.60
2023-03-06T09:09:15.005Z,4.59
2023-03-06T09:10:14.803Z,4.63
2023-03-06T09:11:15.011Z,4.65
2023-03-06T09:12:14.752Z,4.66
2023-03-06T09:13:14.989Z,4.65
2023-03-06T09:14:14.803Z,4.67
2023-03-06T09:15:14.508Z,4.70
2023-03-06T09:16:34.813Z,4.73
2023-03-06T09:17:14.694Z,4.73
2023-03-06T09:18:14.825Z,4.80
2023-03-06T09:19:14.585Z,4.84
2023-03-06T09:20:14.835Z,4.88
2023-03-06T09:21:14.596Z,4.94
2023-03-06T09:22:14.843Z,5.00
2023-03-06T09:23:14.591Z,5.04
2023-03-06T09:24:14.874Z,5.10
2023-03-06T09:25:14.616Z,5.17
2023-03-06T09:26:51.502Z,5.28
2023-03-06T09:27:15.651Z,5.38
2023-03-06T09:28:14.402Z,5.48
2023-03-06T09:29:13.894Z,5.58
2023-03-06T09:30:14.653Z,5.72
2023-03-06T09:31:14.415Z,5.83
2023-03-06T09:32:14.710Z,5.99
2023-03-06T09:33:14.400Z,6.18
2023-03-06T09:34:14.663Z,6.37
2023-03-06T09:35:14.403Z,6.59
2023-03-06T09:36:49.308Z,6.87
2023-03-06T09:37:16.343Z,6.97
2023-03-06T09:38:13.795Z,7.20
2023-03-06T09:39:14.555Z,7.20
2023-03-06T09:40:14.326Z,7.20
2023-03-06T09:41:14.559Z,7.16
2023-03-06T09:42:14.324Z,7.10
2023-03-06T09:43:14.613Z,7.10
2023-03-06T09:44:14.383Z,7.09
2023-03-06T09:45:14.612Z,7.09
2023-03-06T09:46:34.371Z,7.03
2023-03-06T09:47:14.590Z,6.95
2023-03-06T09:48:14.358Z,6.85
2023-03-06T09:49:14.599Z,6.81
2023-03-06T09:50:14.343Z,6.79
2023-03-06T09:51:14.601Z,6.73
2023-03-06T09:52:14.398Z,6.70
2023-03-06T09:53:14.615Z,6.67
2023-03-06T09:54:14.394Z,6.64
2023-03-06T09:55:14.645Z,6.58
2023-03-06T09:56:34.419Z,6.55
2023-03-06T09:57:14.148Z,6.54
2023-03-06T09:58:14.408Z,6.55
2023-03-06T09:59:14.143Z,6.58
2023-03-06T10:00:14.415Z,6.61
2023-03-06T10:01:14.175Z,6.62
2023-03-06T10:02:16.578Z,6.61
2023-03-06T10:03:14.365Z,6.59
2023-03-06T10:04:14.475Z,6.61
2023-03-06T10:05:14.298Z,6.64
2023-03-06T10:06:34.538Z,6.66
2023-03-06T10:07:14.283Z,6.66
2023-03-06T10:08:14.045Z,6.66
2023-03-06T10:09:14.301Z,6.69
2023-03-06T10:10:14.097Z,6.71
2023-03-06T10:11:14.354Z,6.70
2023-03-06T10:12:14.127Z,6.64
2023-03-06T10:13:14.405Z,6.64
2023-03-06T10:14:14.166Z,6.67
2023-03-06T10:15:13.937Z,6.69
2023-03-06T10:16:34.213Z,6.76
2023-03-06T10:17:13.955Z,6.80
2023-03-06T10:18:14.206Z,6.89
2023-03-06T10:19:13.999Z,6.92
2023-03-06T10:20:14.307Z,6.88
2023-03-06T10:21:19.310Z,6.89
2023-03-06T10:22:15.281Z,6.81
2023-03-06T10:23:14.048Z,6.76
2023-03-06T10:24:14.312Z,6.74
2023-03-06T10:25:14.047Z,6.76
2023-03-06T10:26:34.376Z,6.77
2023-03-06T10:27:14.107Z,6.77
2023-03-06T10:28:14.003Z,6.71
2023-03-06T10:29:14.127Z,6.67
2023-03-06T10:30:14.131Z,6.61
2023-03-06T10:31:14.260Z,6.56
2023-03-06T10:32:13.928Z,6.55
2023-03-06T10:33:14.149Z,6.54
2023-03-06T10:34:13.938Z,6.52
2023-03-06T10:35:14.210Z,6.49
2023-03-06T10:36:33.977Z,6.49
2023-03-06T10:37:13.724Z,6.46
2023-03-06T10:38:14.019Z,6.43
2023-03-06T10:39:13.755Z,6.40
2023-03-06T10:40:14.040Z,6.37
2023-03-06T10:41:13.783Z,6.40
2023-03-06T10:42:14.072Z,6.34
2023-03-06T10:43:13.784Z,6.36
2023-03-06T10:44:14.075Z,6.43
2023-03-06T10:45:13.835Z,6.41
2023-03-06T10:46:34.218Z,6.46
2023-03-06T10:47:13.883Z,6.46
2023-03-06T10:48:13.655Z,6.48
2023-03-06T10:49:13.913Z,6.54
2023-03-06T10:50:13.652Z,6.56
2023-03-06T10:51:18.536Z,6.59
2023-03-06T10:52:14.725Z,6.59
2023-03-06T10:53:13.959Z,6.59
2023-03-06T10:54:13.695Z,6.56
2023-03-06T10:55:13.959Z,6.55
2023-03-06T10:56:33.752Z,6.56
2023-03-06T10:57:13.992Z,6.55
2023-03-06T10:58:13.732Z,6.55
2023-03-06T10:59:13.551Z,6.55
2023-03-06T11:00:13.792Z,6.52
2023-03-06T11:01:13.614Z,6.52
2023-03-06T11:02:13.814Z,6.54
2023-03-06T11:03:13.574Z,6.54
2023-03-06T11:04:13.851Z,6.56
2023-03-06T11:05:13.608Z,6.61
2023-03-06T11:06:33.850Z,6.69
2023-03-06T11:07:13.657Z,6.62
2023-03-06T11:08:13.375Z,6.64
2023-03-06T11:09:14.633Z,6.62
2023-03-06T11:10:13.917Z,6.55
2023-03-06T11:11:13.678Z,6.51
2023-03-06T11:12:13.399Z,6.49
2023-03-06T11:13:13.653Z,6.48
2023-03-06T11:14:13.417Z,6.51
2023-03-06T11:15:13.698Z,6.48
2023-03-06T11:16:33.460Z,6.46
2023-03-06T11:17:13.698Z,6.44
2023-03-06T11:18:13.494Z,6.43
2023-03-06T11:19:13.740Z,6.43
2023-03-06T11:20:13.494Z,6.41
2023-03-06T11:21:13.271Z,6.40
2023-03-06T11:22:13.537Z,6.40
2023-03-06T11:23:13.291Z,6.40
2023-03-06T11:24:13.611Z,6.41
2023-03-06T11:25:13.323Z,6.41
2023-03-06T11:26:33.596Z,6.38
2023-03-06T11:27:13.343Z,6.41
2023-03-06T11:28:13.606Z,6.43
2023-03-06T11:29:13.392Z,6.48
2023-03-06T11:30:13.636Z,6.52
2023-03-06T11:31:13.451Z,6.58
2023-03-06T11:32:13.232Z,6.61
2023-03-06T11:33:13.417Z,6.67
2023-03-06T11:34:13.188Z,6.69
2023-03-06T11:35:13.412Z,6.73
2023-03-06T11:36:33.214Z,6.76
2023-03-06T11:37:13.423Z,6.77
2023-03-06T11:38:13.188Z,6.77
2023-03-06T11:39:15.485Z,6.79
2023-03-06T11:40:13.196Z,6.80
2023-03-06T11:41:13.881Z,6.81
2023-03-06T11:42:13.223Z,6.81
2023-03-06T11:43:13.459Z,6.84
2023-03-06T11:44:13.248Z,6.80
2023-03-06T11:45:14.455Z,6.80
2023-03-06T11:46:33.370Z,6.81
2023-03-06T11:47:13.024Z,6.79
2023-03-06T11:48:13.338Z,6.77
2023-03-06T11:49:13.068Z,6.77
2023-03-06T11:50:13.336Z,6.74
2023-03-06T11:51:13.094Z,6.73
2023-03-06T11:52:13.367Z,6.73
2023-03-06T11:53:13.096Z,6.73
2023-03-06T11:54:13.392Z,6.71
2023-03-06T11:55:13.142Z,6.71
2023-03-06T11:56:33.462Z,6.71
2023-03-06T11:57:13.190Z,6.73
2023-03-06T11:58:12.949Z,6.74
2023-03-06T11:59:13.191Z,6.71
2023-03-06T12:00:12.981Z,6.69
2023-03-06T12:01:13.225Z,6.69
2023-03-06T12:02:13.020Z,6.69
2023-03-06T12:03:13.225Z,6.67
2023-03-06T12:04:13.035Z,6.69
2023-03-06T12:05:13.357Z,6.71
2023-03-06T12:06:33.077Z,6.71
2023-03-06T12:07:12.809Z,6.71
2023-03-06T12:08:13.078Z,6.74
2023-03-06T12:09:12.864Z,6.71
2023-03-06T12:10:13.100Z,6.74
2023-03-06T12:11:12.856Z,6.74
2023-03-06T12:12:13.101Z,6.76
2023-03-06T12:13:12.843Z,6.74
2023-03-06T12:14:13.143Z,6.70
2023-03-06T12:15:12.902Z,6.66
2023-03-06T12:16:33.274Z,6.62
2023-03-06T12:17:12.990Z,6.61
2023-03-06T12:18:12.765Z,6.59
2023-03-06T12:19:13.050Z,6.61
2023-03-06T12:20:12.790Z,6.61
2023-03-06T12:21:13.047Z,6.58
2023-03-06T12:22:12.835Z,6.61
2023-03-06T12:23:15.737Z,6.62
2023-03-06T12:24:12.870Z,6.64
2023-03-06T12:25:12.639Z,6.66
2023-03-06T12:26:32.927Z,6.69
2023-03-06T12:27:12.680Z,6.69
2023-03-06T12:28:12.958Z,6.73
2023-03-06T12:29:12.715Z,6.73
2023-03-06T12:30:12.967Z,6.79
2023-03-06T12:31:12.727Z,6.84
2023-03-06T12:32:13.126Z,6.88
2023-03-06T12:33:12.761Z,6.92
2023-03-06T12:34:13.052Z,6.97
2023-03-06T12:35:12.804Z,7.05
2023-03-06T12:36:32.614Z,7.12
2023-03-06T12:37:12.849Z,7.10
2023-03-06T12:38:13.630Z,7.21
2023-03-06T12:39:12.873Z,7.25
2023-03-06T12:40:12.638Z,7.27
2023-03-06T12:41:12.888Z,7.32
2023-03-06T12:42:22.649Z,7.42
2023-03-06T12:43:13.883Z,7.48
2023-03-06T12:44:12.655Z,7.52
2023-03-06T12:45:12.415Z,7.53
2023-03-06T12:46:32.735Z,7.50
2023-03-06T12:47:12.458Z,7.46
2023-03-06T12:48:12.771Z,7.43
2023-03-06T12:49:20.115Z,7.45
2023-03-06T12:50:13.855Z,7.52
2023-03-06T12:51:12.522Z,7.55
2023-03-06T12:52:16.023Z,7.60
2023-03-06T12:53:13.521Z,7.67
2023-03-06T12:54:12.785Z,7.77
2023-03-06T12:55:12.574Z,7.85
2023-03-06T12:56:32.886Z,7.89
2023-03-06T12:57:12.613Z,7.90
2023-03-06T12:58:12.383Z,7.93
2023-03-06T12:59:12.660Z,7.97
2023-03-06T13:00:12.422Z,7.97
2023-03-06T13:01:12.705Z,7.92
2023-03-06T13:02:12.440Z,7.89
2023-03-06T13:03:12.647Z,7.86
2023-03-06T13:04:12.493Z,7.83
2023-03-06T13:05:12.245Z,7.77
2023-03-06T13:06:36.566Z,7.72
2023-03-06T13:07:13.266Z,7.68
2023-03-06T13:08:12.545Z,7.61
2023-03-06T13:09:12.247Z,7.49
2023-03-06T13:10:13.606Z,7.39
2023-03-06T13:11:12.299Z,7.23
2023-03-06T13:12:12.591Z,7.12
2023-03-06T13:13:12.377Z,6.94
2023-03-06T13:14:12.602Z,6.77
2023-03-06T13:15:12.350Z,6.59
2023-03-06T13:16:32.673Z,6.34
2023-03-06T13:17:12.385Z,6.18
2023-03-06T13:18:12.126Z,6.01